Time;durP1;ratioP1;P1;durP2;ratioP2;P2;SDS_P1;SDS_P2;PMS_P1;PMS_P2;Temp;Humidity;BMP_temperature;BMP_pressure;BME280_temperature;BME280_humidity;BME280_pressure;Samples;Min_cycle;Max_cycle;Signal;HPM_P1;HPM_P2
2022/05/07 00:01:45;;;;;;;10.70;9.60;;;;;;;;;;5062881;28;20254;-65
2022/05/07 00:04:13;;;;;;;12.57;10.43;;;;;;;;;;5061891;28;20208;-68
2022/05/07 00:06:40;;;;;;;10.70;9.43;;;;;;;;;;5070721;28;20242;-66
2022/05/07 00:09:07;;;;;;;13.13;9.90;;;;;;;;;;5068844;28;20216;-66
2022/05/07 00:11:35;;;;;;;10.63;9.43;;;;;;;;;;5066500;28;20543;-65
2022/05/07 00:14:05;;;;;;;10.50;9.30;;;;;;;;;;5064043;28;20214;-66
2022/05/07 00:19:26;;;;;;;10.37;9.13;;;;;;;;;;5054612;28;20256;-66
2022/05/07 00:21:54;;;;;;;11.00;9.50;;;;;;;;;;5066822;28;20197;-65
2022/05/07 00:24:21;;;;;;;10.47;9.37;;;;;;;;;;5070328;28;20201;-65
2022/05/07 00:26:48;;;;;;;12.43;10.73;;;;;;;;;;5055439;28;20248;-66
2022/05/07 00:29:16;;;;;;;14.50;9.77;;;;;;;;;;5063347;28;20201;-67
2022/05/07 00:31:43;;;;;;;12.27;10.40;;;;;;;;;;5066419;28;20200;-65
2022/05/07 00:34:11;;;;;;;10.17;9.17;;;;;;;;;;5080761;28;20217;-66
2022/05/07 00:36:38;;;;;;;13.00;9.13;;;;;;;;;;5065923;28;20205;-66
2022/05/07 00:39:07;;;;;;;11.07;9.83;;;;;;;;;;5060584;28;20734;-65
2022/05/07 00:41:34;;;;;;;13.80;10.57;;;;;;;;;;5069122;28;22025;-65
2022/05/07 00:44:01;;;;;;;10.40;9.33;;;;;;;;;;5064444;28;20201;-65
2022/05/07 00:46:29;;;;;;;12.67;10.10;;;;;;;;;;5063295;28;20209;-64
2022/05/07 00:48:57;;;;;;;12.93;8.70;;;;;;;;;;5058596;28;20255;-66
2022/05/07 00:51:34;;;;;;;12.40;9.27;;;;;;;;;;5048883;28;20205;-64
2022/05/07 00:54:03;;;;;;;11.77;8.80;;;;;;;;;;5070014;28;20218;-66
2022/05/07 00:56:30;;;;;;;9.93;8.57;;;;;;;;;;5062033;28;20205;-66
2022/05/07 00:58:59;;;;;;;11.33;8.63;;;;;;;;;;5076364;28;20224;-64
2022/05/07 01:01:26;;;;;;;9.17;8.00;;;;;;;;;;5066663;28;20212;-64
2022/05/07 01:03:54;;;;;;;11.33;7.93;;;;;;;;;;5064351;28;20277;-65
2022/05/07 01:06:22;;;;;;;11.03;9.93;;;;;;;;;;5083297;28;20345;-66
2022/05/07 01:08:50;;;;;;;11.23;10.10;;;;;;;;;;5062349;28;20208;-68
2022/05/07 01:11:19;;;;;;;14.83;10.80;;;;;;;;;;5061426;28;20231;-66
2022/05/07 01:13:47;;;;;;;12.67;10.63;;;;;;;;;;5081936;28;20574;-66
2022/05/07 01:16:15;;;;;;;14.20;10.27;;;;;;;;;;5071047;28;20862;-66
2022/05/07 01:18:43;;;;;;;11.40;10.20;;;;;;;;;;5085632;28;20285;-66
2022/05/07 01:21:17;;;;;;;12.83;10.27;;;;;;;;;;5077368;28;20209;-65
2022/05/07 01:23:45;;;;;;;11.27;9.87;;;;;;;;;;5073214;28;20212;-66
2022/05/07 01:26:13;;;;;;;11.00;9.93;;;;;;;;;;5069021;28;20197;-64
2022/05/07 01:28:40;;;;;;;11.37;9.23;;;;;;;;;;5069396;28;20229;-65
2022/05/07 01:31:08;;;;;;;10.30;8.73;;;;;;;;;;5068203;28;20217;-65
2022/05/07 01:33:37;;;;;;;11.63;8.80;;;;;;;;;;5067754;28;20242;-65
2022/05/07 01:36:11;;;;;;;9.13;8.23;;;;;;;;;;5054099;28;20205;-65
2022/05/07 01:38:38;;;;;;;12.90;9.80;;;;;;;;;;5068239;28;20750;-65
2022/05/07 01:41:06;;;;;;;10.90;9.07;;;;;;;;;;5069719;28;20288;-64
2022/05/07 01:43:33;;;;;;;9.50;8.60;;;;;;;;;;5086317;28;20246;-65
2022/05/07 01:46:01;;;;;;;10.53;9.00;;;;;;;;;;5068428;28;20729;-65
2022/05/07 01:48:29;;;;;;;11.80;8.73;;;;;;;;;;5069201;28;20221;-65
2022/05/07 01:50:57;;;;;;;9.10;7.93;;;;;;;;;;5070984;28;20201;-65
2022/05/07 01:53:24;;;;;;;9.40;8.03;;;;;;;;;;5070602;28;20196;-65
2022/05/07 01:55:52;;;;;;;9.43;7.70;;;;;;;;;;5089450;28;20205;-65
2022/05/07 01:58:19;;;;;;;10.87;9.53;;;;;;;;;;5069244;28;20656;-65
2022/05/07 02:00:46;;;;;;;11.53;8.83;;;;;;;;;;5066535;28;20228;-65
2022/05/07 02:03:13;;;;;;;10.97;9.20;;;;;;;;;;5070656;28;20201;-65
2022/05/07 02:05:41;;;;;;;10.77;8.50;;;;;;;;;;5071483;28;20201;-66
2022/05/07 02:08:09;;;;;;;9.67;8.20;;;;;;;;;;5066534;28;20225;-65
2022/05/07 02:10:36;;;;;;;8.50;7.70;;;;;;;;;;5069035;28;20215;-65
2022/05/07 02:13:03;;;;;;;9.10;8.03;;;;;;;;;;5060357;28;20209;-66
2022/05/07 02:15:31;;;;;;;10.70;7.63;;;;;;;;;;5083545;28;20209;-66
2022/05/07 02:17:58;;;;;;;9.33;8.13;;;;;;;;;;5063486;28;20228;-64
2022/05/07 02:20:26;;;;;;;9.37;8.33;;;;;;;;;;5080969;28;20228;-64
2022/05/07 02:22:55;;;;;;;8.43;7.57;;;;;;;;;;5065827;28;20257;-65
2022/05/07 02:25:23;;;;;;;11.20;8.50;;;;;;;;;;5067900;28;20211;-65
2022/05/07 02:27:50;;;;;;;9.43;8.43;;;;;;;;;;5070234;28;20217;-66
2022/05/07 02:30:19;;;;;;;9.50;8.03;;;;;;;;;;5065033;28;20247;-65
2022/05/07 02:32:49;;;;;;;8.33;7.50;;;;;;;;;;5066274;28;20689;-65
2022/05/07 02:35:17;;;;;;;10.20;7.90;;;;;;;;;;5080553;28;20197;-65
2022/05/07 02:37:44;;;;;;;9.10;8.10;;;;;;;;;;5066753;28;20274;-65
2022/05/07 02:40:12;;;;;;;10.93;9.70;;;;;;;;;;5069198;28;20224;-65
2022/05/07 02:42:40;;;;;;;13.73;10.20;;;;;;;;;;5076590;28;20197;-65
2022/05/07 02:45:08;;;;;;;12.27;9.80;;;;;;;;;;5088190;28;20209;-65
2022/05/07 02:47:37;;;;;;;12.10;9.67;;;;;;;;;;5058127;28;20267;-65
2022/05/07 02:50:05;;;;;;;11.07;8.77;;;;;;;;;;5066489;28;20235;-65
2022/05/07 02:52:33;;;;;;;8.63;7.37;;;;;;;;;;5065571;28;20212;-66
2022/05/07 02:55:04;;;;;;;9.53;8.00;;;;;;;;;;5088305;28;20212;-66
2022/05/07 02:57:32;;;;;;;8.70;7.87;;;;;;;;;;5071529;28;20325;-65
2022/05/07 02:59:59;;;;;;;8.70;7.77;;;;;;;;;;5088569;28;20315;-64
2022/05/07 03:02:27;;;;;;;9.93;7.53;;;;;;;;;;5067033;28;20613;-64
2022/05/07 03:04:55;;;;;;;8.83;7.77;;;;;;;;;;5064663;28;20202;-66
2022/05/07 03:07:22;;;;;;;8.93;8.03;;;;;;;;;;5064108;28;20217;-64
2022/05/07 03:09:50;;;;;;;7.83;7.07;;;;;;;;;;5061926;28;20224;-64
2022/05/07 03:12:17;;;;;;;13.83;11.20;;;;;;;;;;5063746;28;20254;-65
2022/05/07 03:14:44;;;;;;;9.47;8.53;;;;;;;;;;5060846;28;20258;-65
2022/05/07 03:17:12;;;;;;;8.80;7.90;;;;;;;;;;5062240;28;20229;-65
2022/05/07 03:19:39;;;;;;;10.03;8.30;;;;;;;;;;5066152;28;20796;-65
2022/05/07 03:22:06;;;;;;;9.00;8.10;;;;;;;;;;5067194;28;20197;-65
2022/05/07 03:24:37;;;;;;;9.23;8.27;;;;;;;;;;5068362;28;20695;-65
2022/05/07 03:27:05;;;;;;;9.23;8.30;;;;;;;;;;5062407;28;20225;-65
2022/05/07 03:29:33;;;;;;;9.93;8.93;;;;;;;;;;5066852;28;20636;-65
2022/05/07 03:32:00;;;;;;;9.90;8.17;;;;;;;;;;5065755;28;20284;-64
2022/05/07 03:34:28;;;;;;;8.67;7.80;;;;;;;;;;5062939;28;20205;-66
2022/05/07 03:36:55;;;;;;;9.20;8.23;;;;;;;;;;5065423;28;20755;-65
2022/05/07 03:39:23;;;;;;;11.80;8.47;;;;;;;;;;5069436;28;20227;-67
2022/05/07 03:41:51;;;;;;;9.63;8.60;;;;;;;;;;5068366;28;20239;-65
2022/05/07 03:44:18;;;;;;;12.70;9.20;;;;;;;;;;5101453;28;20204;-64
2022/05/07 03:46:46;;;;;;;9.17;8.27;;;;;;;;;;5086839;28;20299;-66
2022/05/07 03:49:14;;;;;;;11.67;9.13;;;;;;;;;;5085044;28;20206;-65
2022/05/07 03:54:27;;;;;;;10.60;9.40;;;;;;;;;;5106241;28;20189;-67
2022/05/07 03:56:55;;;;;;;9.97;8.93;;;;;;;;;;5081870;28;20658;-65
2022/05/07 03:59:22;;;;;;;11.53;9.80;;;;;;;;;;5069199;28;20213;-65
2022/05/07 04:01:49;;;;;;;12.23;8.77;;;;;;;;;;5066927;28;20266;-65
2022/05/07 04:04:17;;;;;;;10.17;8.50;;;;;;;;;;5070844;28;20740;-65
2022/05/07 04:06:44;;;;;;;11.03;9.27;;;;;;;;;;5060331;28;20221;-63
2022/05/07 04:09:12;;;;;;;11.03;8.97;;;;;;;;;;5065502;28;20217;-66
2022/05/07 04:11:39;;;;;;;8.77;7.87;;;;;;;;;;5070683;28;20544;-65
2022/05/07 04:14:06;;;;;;;9.77;8.87;;;;;;;;;;5066741;28;20621;-65
2022/05/07 04:16:34;;;;;;;10.93;8.90;;;;;;;;;;5071602;28;20635;-64
2022/05/07 04:19:08;;;;;;;11.13;9.37;;;;;;;;;;5068275;28;20212;-65
2022/05/07 04:21:37;;;;;;;10.77;9.07;;;;;;;;;;5070336;28;20600;-64
2022/05/07 04:24:05;;;;;;;12.60;8.13;;;;;;;;;;5061324;28;20204;-65
2022/05/07 04:26:33;;;;;;;12.40;8.23;;;;;;;;;;5069529;28;20201;-65
2022/05/07 04:29:01;;;;;;;8.87;7.60;;;;;;;;;;5067577;28;20674;-64
2022/05/07 04:31:28;;;;;;;10.00;8.13;;;;;;;;;;5066286;28;20206;-65
2022/05/07 04:33:56;;;;;;;8.83;7.80;;;;;;;;;;5066827;28;20216;-64
2022/05/07 04:36:23;;;;;;;8.23;7.43;;;;;;;;;;5061228;28;20211;-65
2022/05/07 04:38:50;;;;;;;9.27;8.23;;;;;;;;;;5067887;28;20862;-65
2022/05/07 04:41:18;;;;;;;11.57;9.23;;;;;;;;;;5075430;28;20220;-63
2022/05/07 04:43:45;;;;;;;11.23;8.93;;;;;;;;;;5054873;28;20205;-66
2022/05/07 04:46:13;;;;;;;10.33;9.27;;;;;;;;;;5059775;28;20213;-65
2022/05/07 04:48:41;;;;;;;11.30;8.87;;;;;;;;;;5065919;28;20239;-63
2022/05/07 04:51:08;;;;;;;10.77;8.17;;;;;;;;;;5061676;28;20209;-66
2022/05/07 04:53:56;;;;;;;9.97;8.33;;;;;;;;;;5073601;28;20229;-65
2022/05/07 04:56:24;;;;;;;10.77;8.60;;;;;;;;;;5073796;28;20205;-64
2022/05/07 04:58:52;;;;;;;10.67;9.40;;;;;;;;;;5091073;28;20217;-63
2022/05/07 05:01:19;;;;;;;10.63;9.53;;;;;;;;;;5071011;28;20229;-65
2022/05/07 05:03:47;;;;;;;10.10;8.73;;;;;;;;;;5068650;28;20232;-65
2022/05/07 05:06:14;;;;;;;10.20;9.17;;;;;;;;;;5066869;28;20205;-67
2022/05/07 05:08:41;;;;;;;11.90;9.27;;;;;;;;;;5065759;28;20643;-63
2022/05/07 05:11:09;;;;;;;9.73;8.67;;;;;;;;;;5060989;28;20205;-66
2022/05/07 05:13:36;;;;;;;10.67;8.83;;;;;;;;;;5068223;28;20294;-65
2022/05/07 05:16:03;;;;;;;11.00;8.90;;;;;;;;;;5067638;28;20208;-65
2022/05/07 05:18:31;;;;;;;10.93;9.77;;;;;;;;;;5081637;28;20726;-65
2022/05/07 05:20:58;;;;;;;12.63;10.77;;;;;;;;;;5051473;28;20260;-63
2022/05/07 05:23:29;;;;;;;14.77;10.67;;;;;;;;;;5071699;28;20200;-64
2022/05/07 05:25:56;;;;;;;15.37;11.30;;;;;;;;;;5064539;28;20208;-65
2022/05/07 05:28:24;;;;;;;13.50;11.23;;;;;;;;;;5086901;28;20224;-64
2022/05/07 05:30:58;;;;;;;11.40;10.20;;;;;;;;;;5064408;28;20211;-68
2022/05/07 05:33:26;;;;;;;10.97;9.80;;;;;;;;;;5067754;28;20201;-66
2022/05/07 05:35:53;;;;;;;11.03;9.67;;;;;;;;;;5063427;28;20201;-64
2022/05/07 05:38:21;;;;;;;8.67;7.77;;;;;;;;;;5056899;28;20225;-67
2022/05/07 05:40:48;;;;;;;9.13;7.83;;;;;;;;;;5057506;28;20232;-66
2022/05/07 05:43:15;;;;;;;12.00;9.83;;;;;;;;;;5059001;28;20278;-65
2022/05/07 05:45:43;;;;;;;13.63;9.73;;;;;;;;;;5061980;28;20560;-65
2022/05/07 05:48:10;;;;;;;12.33;9.50;;;;;;;;;;5068612;28;20283;-65
2022/05/07 05:50:38;;;;;;;12.07;10.10;;;;;;;;;;5067835;28;20287;-65
2022/05/07 05:53:07;;;;;;;13.77;9.97;;;;;;;;;;5065470;28;20231;-63
2022/05/07 05:55:34;;;;;;;9.90;8.83;;;;;;;;;;5078492;28;20202;-66
2022/05/07 05:58:01;;;;;;;8.83;7.90;;;;;;;;;;5061728;28;20251;-64
2022/05/07 06:00:28;;;;;;;9.50;8.35;;;;;;;;;;5055534;28;20714;-68
2022/05/07 06:02:56;;;;;;;9.70;7.75;;;;;;;;;;5069325;28;22035;-66
2022/05/07 06:05:23;;;;;;;9.55;7.38;;;;;;;;;;5079021;28;20283;-66
2022/05/07 06:07:51;;;;;;;7.63;6.90;;;;;;;;;;5062902;28;20227;-64
2022/05/07 06:10:18;;;;;;;7.93;7.13;;;;;;;;;;5066321;28;20285;-66
2022/05/07 06:12:48;;;;;;;8.00;7.30;;;;;;;;;;5074155;28;20239;-68
2022/05/07 06:15:15;;;;;;;8.70;7.80;;;;;;;;;;5089074;28;20209;-66
2022/05/07 06:17:42;;;;;;;12.48;7.90;;;;;;;;;;5064778;28;20224;-65
2022/05/07 06:20:10;;;;;;;8.73;7.60;;;;;;;;;;5064920;28;20733;-65
2022/05/07 06:22:37;;;;;;;10.77;7.93;;;;;;;;;;5068419;28;20627;-67
2022/05/07 06:27:51;;;;;;;8.53;7.67;;;;;;;;;;5078108;28;20316;-64
2022/05/07 06:30:19;;;;;;;11.40;8.10;;;;;;;;;;5080907;28;20631;-65
2022/05/07 06:32:46;;;;;;;8.77;7.93;;;;;;;;;;5061330;28;20205;-64
2022/05/07 06:35:13;;;;;;;9.57;8.60;;;;;;;;;;5059501;28;20440;-65
2022/05/07 06:37:46;;;;;;;9.17;8.27;;;;;;;;;;5064314;28;20311;-66
2022/05/07 06:40:13;;;;;;;9.73;8.43;;;;;;;;;;5060963;28;20225;-67
2022/05/07 06:42:41;;;;;;;12.30;8.60;;;;;;;;;;5065991;28;22058;-66
2022/05/07 06:45:08;;;;;;;10.73;8.47;;;;;;;;;;5064757;28;20205;-67
2022/05/07 06:47:36;;;;;;;10.03;8.93;;;;;;;;;;5053376;28;20229;-66
2022/05/07 06:50:03;;;;;;;12.00;10.67;;;;;;;;;;5053616;28;20695;-66
2022/05/07 06:52:31;;;;;;;12.37;11.07;;;;;;;;;;5053163;28;20742;-66
2022/05/07 06:54:58;;;;;;;11.13;10.00;;;;;;;;;;5061461;28;20209;-66
2022/05/07 06:57:26;;;;;;;15.10;11.83;;;;;;;;;;5067826;28;20259;-66
2022/05/07 06:59:53;;;;;;;15.30;12.73;;;;;;;;;;5066661;28;20259;-65
2022/05/07 07:02:22;;;;;;;14.77;13.17;;;;;;;;;;5055507;28;20608;-67
2022/05/07 07:04:49;;;;;;;15.20;13.60;;;;;;;;;;5061672;28;20200;-66
2022/05/07 07:07:24;;;;;;;17.93;14.33;;;;;;;;;;5082339;28;20587;-65
2022/05/07 07:09:52;;;;;;;15.77;14.07;;;;;;;;;;5057408;28;20215;-64
2022/05/07 07:12:20;;;;;;;16.83;13.77;;;;;;;;;;5063124;28;20202;-64
2022/05/07 07:14:59;;;;;;;15.60;13.60;;;;;;;;;;5061742;28;20205;-66
2022/05/07 07:17:27;;;;;;;15.80;13.33;;;;;;;;;;5075208;28;20221;-65
2022/05/07 07:19:55;;;;;;;14.17;12.63;;;;;;;;;;5070493;28;20209;-65
2022/05/07 07:22:25;;;;;;;15.03;13.53;;;;;;;;;;5061646;28;20256;-65
2022/05/07 07:24:52;;;;;;;17.73;13.20;;;;;;;;;;5075698;28;20217;-66
2022/05/07 07:27:26;;;;;;;14.15;11.85;;;;;;;;;;5064478;28;20226;-67
2022/05/07 07:29:53;;;;;;;13.50;12.10;;;;;;;;;;5058194;28;21760;-65
2022/05/07 07:32:21;;;;;;;13.55;12.18;;;;;;;;;;5050661;28;20219;-65
2022/05/07 07:34:49;;;;;;;13.18;11.88;;;;;;;;;;5045687;28;20251;-67
2022/05/07 07:37:16;;;;;;;14.05;12.13;;;;;;;;;;5074345;28;20224;-67
2022/05/07 07:39:43;;;;;;;12.82;11.15;;;;;;;;;;5057010;28;20254;-65
2022/05/07 07:42:11;;;;;;;12.98;11.60;;;;;;;;;;5055751;28;20271;-65
2022/05/07 07:44:38;;;;;;;15.10;11.20;;;;;;;;;;5061262;28;20263;-66
2022/05/07 07:49:52;;;;;;;12.23;10.93;;;;;;;;;;5073567;28;20197;-65
2022/05/07 07:52:19;;;;;;;11.75;10.55;;;;;;;;;;5051850;28;20204;-66
2022/05/07 07:54:46;;;;;;;11.60;10.48;;;;;;;;;;5051711;28;20212;-62
2022/05/07 07:57:14;;;;;;;12.27;11.13;;;;;;;;;;5067058;28;20232;-66
2022/05/07 07:59:42;;;;;;;13.70;10.25;;;;;;;;;;5071165;28;20209;-63
2022/05/07 08:02:09;;;;;;;12.65;10.93;;;;;;;;;;5053182;28;20233;-66
2022/05/07 08:04:37;;;;;;;12.43;9.88;;;;;;;;;;5064653;28;20220;-65
2022/05/07 08:12:47;;;;;;;10.90;9.80;;;;;;;;;;5070299;28;20213;-64
2022/05/07 08:15:38;;;;;;;11.13;9.90;;;;;;;;;;5071675;28;20205;-63
2022/05/07 08:18:06;;;;;;;11.95;10.23;;;;;;;;;;5063702;28;20285;-66
2022/05/07 08:20:34;;;;;;;11.40;9.48;;;;;;;;;;5063336;28;20263;-63
2022/05/07 08:23:01;;;;;;;12.45;10.45;;;;;;;;;;5055060;28;21019;-66
2022/05/07 08:25:28;;;;;;;11.32;9.65;;;;;;;;;;5054908;28;20200;-65
2022/05/07 08:27:56;;;;;;;11.27;9.40;;;;;;;;;;5063566;28;20225;-64
2022/05/07 08:30:23;;;;;;;11.05;9.35;;;;;;;;;;5061057;28;20246;-65
2022/05/07 08:32:51;;;;;;;10.15;9.10;;;;;;;;;;5062322;28;20726;-66
2022/05/07 08:35:20;;;;;;;11.05;9.15;;;;;;;;;;5069881;28;20663;-65
2022/05/07 08:37:48;;;;;;;10.88;9.18;;;;;;;;;;5059224;28;20232;-64
2022/05/07 08:40:16;;;;;;;11.23;9.40;;;;;;;;;;5060347;28;20231;-65
2022/05/07 08:42:44;;;;;;;13.52;9.93;;;;;;;;;;5065277;28;20304;-69
2022/05/07 08:45:12;;;;;;;10.52;9.15;;;;;;;;;;5061621;28;20330;-63
2022/05/07 08:47:44;;;;;;;11.55;9.35;;;;;;;;;;5056073;28;20306;-65
2022/05/07 08:50:14;;;;;;;11.90;8.57;;;;;;;;;;5061827;28;20209;-65
2022/05/07 08:52:42;;;;;;;10.65;8.98;;;;;;;;;;5064826;28;20204;-65
2022/05/07 08:55:20;;;;;;;9.82;8.85;;;;;;;;;;5050822;28;20205;-64
2022/05/07 08:57:48;;;;;;;8.82;7.63;;;;;;;;;;5061004;28;20686;-66
2022/05/07 09:00:17;;;;;;;12.18;8.35;;;;;;;;;;5090476;28;20197;-66
2022/05/07 09:02:45;;;;;;;9.05;7.97;;;;;;;;;;5074081;28;20587;-65
2022/05/07 09:05:14;;;;;;;8.90;8.15;;;;;;;;;;5074247;28;20201;-65
2022/05/07 09:07:51;;;;;;;8.82;8.00;;;;;;;;;;5073380;28;20213;-65
2022/05/07 09:10:19;;;;;;;8.75;7.97;;;;;;;;;;5074164;28;20238;-66
2022/05/07 09:12:47;;;;;;;9.20;8.30;;;;;;;;;;5074051;28;20292;-66
2022/05/07 09:15:14;;;;;;;9.75;8.35;;;;;;;;;;5073190;28;20679;-66
2022/05/07 09:17:46;;;;;;;10.20;8.65;;;;;;;;;;5074319;28;20235;-67
2022/05/07 09:20:26;;;;;;;10.75;9.02;;;;;;;;;;5073682;28;20208;-66
2022/05/07 09:22:55;;;;;;;10.48;8.80;;;;;;;;;;5067365;28;20219;-66
2022/05/07 09:25:26;;;;;;;10.23;9.00;;;;;;;;;;5073054;28;20204;-66
2022/05/07 09:27:58;;;;;;;9.77;8.68;;;;;;;;;;5066549;28;20209;-66
2022/05/07 09:30:32;;;;;;;11.23;8.60;;;;;;;;;;5073750;28;20273;-67
2022/05/07 09:33:00;;;;;;;10.18;8.70;;;;;;;;;;5071920;28;20548;-65
2022/05/07 09:38:15;;;;;;;13.07;8.38;;;;;;;;;;5091638;28;20255;-66
2022/05/07 09:40:43;;;;;;;9.32;8.43;;;;;;;;;;5072791;28;20196;-66
2022/05/07 09:43:14;;;;;;;9.70;8.70;;;;;;;;;;5073532;28;20250;-66
2022/05/07 09:45:41;;;;;;;9.32;8.13;;;;;;;;;;5081936;28;20200;-69
2022/05/07 09:48:10;;;;;;;11.80;9.07;;;;;;;;;;5095945;28;20225;-68
2022/05/07 09:58:42;;;;;;;15.35;9.10;;;;;;;;;;5081910;28;20706;-66
2022/05/07 10:01:09;;;;;;;11.05;8.57;;;;;;;;;;5072773;28;20273;-66
2022/05/07 10:03:40;;;;;;;10.70;8.25;;;;;;;;;;5071876;28;20205;-66
2022/05/07 10:06:24;;;;;;;10.00;8.75;;;;;;;;;;5070588;28;20258;-64
2022/05/07 10:09:13;;;;;;;10.35;8.68;;;;;;;;;;5083899;28;20281;-66
2022/05/07 10:11:41;;;;;;;12.95;10.05;;;;;;;;;;5073436;28;20209;-68
2022/05/07 10:14:08;;;;;;;10.23;9.02;;;;;;;;;;5090819;28;20285;-66
2022/05/07 10:16:36;;;;;;;11.55;9.27;;;;;;;;;;5072832;28;20243;-66
2022/05/07 10:19:10;;;;;;;14.70;9.07;;;;;;;;;;5072675;28;20200;-66
2022/05/07 10:21:38;;;;;;;9.32;8.43;;;;;;;;;;5072874;28;20228;-66
2022/05/07 10:24:05;;;;;;;8.55;7.53;;;;;;;;;;5072257;28;20261;-67
2022/05/07 10:26:40;;;;;;;12.52;8.25;;;;;;;;;;5072103;28;20658;-66
2022/05/07 10:29:07;;;;;;;9.25;7.53;;;;;;;;;;5072036;28;20211;-66
2022/05/07 10:31:45;;;;;;;9.65;7.90;;;;;;;;;;5072027;28;20229;-67
2022/05/07 10:34:25;;;;;;;8.20;6.88;;;;;;;;;;5072867;28;20240;-66
2022/05/07 10:37:06;;;;;;;6.65;6.00;;;;;;;;;;5071707;28;20274;-66
2022/05/07 10:39:36;;;;;;;10.85;6.72;;;;;;;;;;5089832;28;20197;-66
2022/05/07 10:42:16;;;;;;;7.82;6.93;;;;;;;;;;5071846;28;20504;-66
2022/05/07 10:44:44;;;;;;;9.95;6.95;;;;;;;;;;5072566;28;20204;-66
2022/05/07 10:47:12;;;;;;;9.60;7.43;;;;;;;;;;5074621;28;20591;-65
2022/05/07 10:49:53;;;;;;;7.95;7.18;;;;;;;;;;5076225;28;20201;-66
2022/05/07 10:52:31;;;;;;;9.98;8.05;;;;;;;;;;5093721;28;20249;-66
2022/05/07 10:55:05;;;;;;;8.35;6.95;;;;;;;;;;5076114;28;20200;-67
2022/05/07 10:57:42;;;;;;;7.90;6.85;;;;;;;;;;5075575;28;20274;-67
2022/05/07 11:00:11;;;;;;;8.57;7.20;;;;;;;;;;5075705;28;20208;-65
2022/05/07 11:02:38;;;;;;;10.60;7.38;;;;;;;;;;5075666;28;20220;-66
2022/05/07 11:05:06;;;;;;;8.50;7.57;;;;;;;;;;5076322;28;20210;-66
2022/05/07 11:07:35;;;;;;;10.10;7.47;;;;;;;;;;5075670;28;20225;-66
2022/05/07 11:10:12;;;;;;;9.10;7.20;;;;;;;;;;5076980;28;20253;-67
2022/05/07 11:12:40;;;;;;;8.10;7.22;;;;;;;;;;5075361;28;20213;-67
2022/05/07 11:15:08;;;;;;;11.07;7.07;;;;;;;;;;5072006;28;20209;-66
2022/05/07 11:17:36;;;;;;;7.18;6.47;;;;;;;;;;5072172;28;20711;-66
2022/05/07 11:20:10;;;;;;;9.93;7.15;;;;;;;;;;5071919;28;20254;-66
2022/05/07 11:22:39;;;;;;;8.13;6.88;;;;;;;;;;5075235;28;20745;-65
2022/05/07 11:25:08;;;;;;;7.13;6.47;;;;;;;;;;5076094;28;20209;-64
2022/05/07 11:27:35;;;;;;;7.72;6.80;;;;;;;;;;5075221;28;20315;-64
2022/05/07 11:30:04;;;;;;;13.38;6.60;;;;;;;;;;5076843;28;20234;-66
2022/05/07 11:32:36;;;;;;;15.00;7.82;;;;;;;;;;5076447;28;20683;-67
2022/05/07 11:35:04;;;;;;;7.75;6.97;;;;;;;;;;5075244;28;20200;-65
2022/05/07 11:37:38;;;;;;;9.45;6.93;;;;;;;;;;5074127;28;20221;-65
2022/05/07 11:40:06;;;;;;;7.93;6.47;;;;;;;;;;5074973;28;20200;-65
2022/05/07 11:42:36;;;;;;;7.38;6.53;;;;;;;;;;5075170;28;20919;-67
2022/05/07 11:45:30;;;;;;;7.15;6.35;;;;;;;;;;5077217;28;20685;-64
2022/05/07 11:48:05;;;;;;;7.93;6.20;;;;;;;;;;5075109;28;20308;-67
2022/05/07 11:50:41;;;;;;;7.45;6.43;;;;;;;;;;5074358;28;20211;-65
2022/05/07 11:53:10;;;;;;;6.60;5.88;;;;;;;;;;5076346;28;20204;-66
2022/05/07 11:55:37;;;;;;;8.02;6.20;;;;;;;;;;5074793;28;20416;-67
2022/05/07 11:58:16;;;;;;;6.22;5.63;;;;;;;;;;5073247;28;20225;-66
2022/05/07 12:00:45;;;;;;;7.70;6.40;;;;;;;;;;5074729;28;20300;-64
2022/05/07 12:03:16;;;;;;;6.82;5.72;;;;;;;;;;5074159;28;20341;-66
2022/05/07 12:05:48;;;;;;;6.35;5.75;;;;;;;;;;5075768;28;20567;-65
2022/05/07 12:08:16;;;;;;;6.47;5.25;;;;;;;;;;5069785;28;20415;-67
2022/05/07 12:10:44;;;;;;;6.22;5.20;;;;;;;;;;5074567;28;20269;-67
2022/05/07 12:13:14;;;;;;;7.68;5.90;;;;;;;;;;5074695;28;20235;-68
2022/05/07 12:18:34;;;;;;;6.43;5.70;;;;;;;;;;5092959;28;20315;-65
2022/05/07 12:21:01;;;;;;;6.93;5.93;;;;;;;;;;5075174;28;20204;-67
2022/05/07 12:31:47;;;;;;;6.22;5.28;;;;;;;;;;5110473;28;20572;-66
2022/05/07 12:34:14;;;;;;;6.65;5.30;;;;;;;;;;5074817;28;20601;-66
2022/05/07 12:36:42;;;;;;;7.40;5.72;;;;;;;;;;5074173;28;20201;-66
2022/05/07 12:39:09;;;;;;;5.60;5.03;;;;;;;;;;5074133;28;20208;-66
2022/05/07 12:41:41;;;;;;;6.40;5.28;;;;;;;;;;5074687;28;20268;-65
2022/05/07 12:44:08;;;;;;;8.05;5.38;;;;;;;;;;5074586;28;20204;-67
2022/05/07 12:46:35;;;;;;;7.13;5.25;;;;;;;;;;5072044;28;20664;-66
2022/05/07 12:49:03;;;;;;;6.07;4.30;;;;;;;;;;5073542;28;20209;-66
2022/05/07 12:51:30;;;;;;;4.65;4.25;;;;;;;;;;5072872;28;20197;-64
2022/05/07 12:53:58;;;;;;;7.18;6.47;;;;;;;;;;5067474;28;20659;-65
2022/05/07 12:56:25;;;;;;;6.13;5.63;;;;;;;;;;5071058;28;20197;-66
2022/05/07 12:58:53;;;;;;;5.65;4.72;;;;;;;;;;5073281;28;20692;-65
2022/05/07 13:01:20;;;;;;;5.90;4.93;;;;;;;;;;5073784;28;20209;-66
2022/05/07 13:03:48;;;;;;;4.72;4.43;;;;;;;;;;5070289;28;20316;-67
2022/05/07 13:06:15;;;;;;;4.93;4.53;;;;;;;;;;5086751;28;20204;-66
2022/05/07 13:08:42;;;;;;;7.18;5.28;;;;;;;;;;5072789;28;20694;-66
2022/05/07 13:11:10;;;;;;;7.18;4.88;;;;;;;;;;5073292;28;20635;-67
2022/05/07 13:13:37;;;;;;;5.70;5.15;;;;;;;;;;5070490;28;20209;-65
2022/05/07 13:16:04;;;;;;;5.00;4.60;;;;;;;;;;5070179;28;20262;-66
2022/05/07 13:18:32;;;;;;;5.57;4.72;;;;;;;;;;5072775;28;20230;-66
2022/05/07 13:21:00;;;;;;;5.30;4.80;;;;;;;;;;5073586;28;20209;-66
2022/05/07 13:23:27;;;;;;;5.72;4.68;;;;;;;;;;5072982;28;20224;-66
2022/05/07 13:25:54;;;;;;;5.07;4.55;;;;;;;;;;5073298;28;20205;-67
2022/05/07 13:28:21;;;;;;;6.30;4.50;;;;;;;;;;5073009;28;20759;-66
2022/05/07 13:30:49;;;;;;;6.07;4.82;;;;;;;;;;5073051;28;20196;-65
2022/05/07 13:33:16;;;;;;;6.70;4.70;;;;;;;;;;5073320;28;20204;-65
2022/05/07 13:35:44;;;;;;;4.90;4.40;;;;;;;;;;5072877;28;20611;-66
2022/05/07 13:38:11;;;;;;;4.57;4.15;;;;;;;;;;5090834;28;20275;-66
2022/05/07 13:40:39;;;;;;;5.40;4.10;;;;;;;;;;5071427;28;20197;-66
2022/05/07 13:43:06;;;;;;;5.28;4.25;;;;;;;;;;5084292;28;20224;-66
2022/05/07 13:45:34;;;;;;;5.50;4.43;;;;;;;;;;5072864;28;20197;-66
2022/05/07 13:48:01;;;;;;;6.50;4.47;;;;;;;;;;5072822;28;20736;-66
2022/05/07 13:50:28;;;;;;;4.60;4.20;;;;;;;;;;5072550;28;20208;-66
2022/05/07 13:52:56;;;;;;;5.72;4.60;;;;;;;;;;5068657;28;20209;-67
2022/05/07 13:55:23;;;;;;;5.40;4.40;;;;;;;;;;5069490;28;20204;-66
2022/05/07 13:57:51;;;;;;;4.78;4.28;;;;;;;;;;5072176;28;20216;-66
2022/05/07 14:00:19;;;;;;;6.00;3.95;;;;;;;;;;5072575;28;20642;-66
2022/05/07 14:02:47;;;;;;;4.07;3.67;;;;;;;;;;5072508;28;20224;-66
2022/05/07 14:05:14;;;;;;;4.10;3.60;;;;;;;;;;5069302;28;20247;-67
2022/05/07 14:07:42;;;;;;;4.13;3.72;;;;;;;;;;5082423;28;20223;-65
2022/05/07 14:10:10;;;;;;;4.45;3.90;;;;;;;;;;5072400;28;20216;-65
2022/05/07 14:12:38;;;;;;;4.40;4.00;;;;;;;;;;5074260;28;20603;-66
2022/05/07 14:15:06;;;;;;;3.95;3.42;;;;;;;;;;5090868;28;20205;-67
2022/05/07 14:17:33;;;;;;;4.00;3.30;;;;;;;;;;5072244;28;20228;-66
2022/05/07 14:20:01;;;;;;;6.20;2.97;;;;;;;;;;5066305;28;20280;-66
2022/05/07 14:22:31;;;;;;;3.60;2.97;;;;;;;;;;5068091;28;20269;-67
2022/05/07 14:25:00;;;;;;;4.22;3.30;;;;;;;;;;5082372;28;20291;-64
2022/05/07 14:27:32;;;;;;;3.40;3.10;;;;;;;;;;5072878;28;20263;-66
2022/05/07 14:30:00;;;;;;;3.75;3.13;;;;;;;;;;5068644;28;20240;-67
2022/05/07 14:32:30;;;;;;;4.10;3.00;;;;;;;;;;5086359;28;20292;-66
2022/05/07 14:35:00;;;;;;;3.67;3.38;;;;;;;;;;5072422;28;20258;-66
2022/05/07 14:37:28;;;;;;;3.45;3.25;;;;;;;;;;5071574;28;20503;-67
2022/05/07 14:39:55;;;;;;;3.88;3.40;;;;;;;;;;5071980;28;20201;-67
2022/05/07 14:42:23;;;;;;;6.13;3.30;;;;;;;;;;5072128;28;20217;-67
2022/05/07 14:44:50;;;;;;;3.85;3.40;;;;;;;;;;5070642;28;20697;-65
2022/05/07 14:47:18;;;;;;;3.50;3.20;;;;;;;;;;5086276;28;20521;-66
2022/05/07 14:49:45;;;;;;;3.85;3.33;;;;;;;;;;5052331;28;20198;-65
2022/05/07 14:52:13;;;;;;;3.92;3.20;;;;;;;;;;5069082;28;20646;-67
2022/05/07 14:54:44;;;;;;;6.30;2.90;;;;;;;;;;5072804;28;20470;-66
2022/05/07 14:57:12;;;;;;;4.38;2.92;;;;;;;;;;5072067;28;20850;-66
2022/05/07 14:59:40;;;;;;;3.85;2.60;;;;;;;;;;5090876;28;20250;-67
2022/05/07 15:02:07;;;;;;;4.53;3.33;;;;;;;;;;5085930;28;20209;-67
2022/05/07 15:04:35;;;;;;;5.97;3.10;;;;;;;;;;5072457;28;20739;-66
2022/05/07 15:07:07;;;;;;;4.55;3.17;;;;;;;;;;5072908;28;20221;-67
2022/05/07 15:12:22;;;;;;;3.47;3.15;;;;;;;;;;5085763;28;20288;-67
2022/05/07 15:14:50;;;;;;;4.05;3.10;;;;;;;;;;5051947;28;20217;-67
2022/05/07 15:17:18;;;;;;;5.65;3.20;;;;;;;;;;5051527;28;20233;-67
2022/05/07 15:19:45;;;;;;;4.65;3.20;;;;;;;;;;5051979;28;20209;-67
2022/05/07 15:22:13;;;;;;;3.10;2.90;;;;;;;;;;5051844;28;20209;-67
2022/05/07 15:24:40;;;;;;;3.28;2.65;;;;;;;;;;5059184;28;20205;-67
2022/05/07 15:27:08;;;;;;;3.88;2.83;;;;;;;;;;5071870;28;20228;-66